首页
METAR-TAF:

METAR-TAF

机场 :

Hillsdale Municipal Airport

Hillsdale, 密歇根州, 美国

纬度: 41-55-17N, 经度: 084-35-09W, 海拔: 360米

当前天气观测

该预报发布于7分钟前的02:38 UTC
静风
温度 20°C
湿度 83%
气压 1020 hPa
能見度: 16.1公里
天空无云

METAR: KJYM 270238Z AUTO 00000KT 10SM CLR 20/17 A3013 RMK AO2 T01990170

时间: 22:45 (02:45 UTC)


TAF: 丢失

超过4000个机场的气象观测和天气预报(METAR&TAF报告)。

可查询的气象台以黄色和红色小点在地图上表示。

将鼠标移到小点上方,可查看气象台名称。

然后点击查看天气观测和预报。

如需切换地图:点击带黑十字的绿色按钮放大地图;点击带横线的绿色按钮缩小地图;或者点击绿色箭头查看邻近地区的地图。


METAR-TAF: